Time;durP1;ratioP1;P1;durP2;ratioP2;P2;SDS_P1;SDS_P2;PMS_P1;PMS_P2;Temp;Humidity;BMP_temperature;BMP_pressure;BME280_temperature;BME280_humidity;BME280_pressure;Samples;Min_cycle;Max_cycle;Signal;HPM_P1;HPM_P2
2022/05/16 00:00:18;;;;;;;;;10.67;10.00;;;;;22.62;36.73;101359.24;110481;1261;18721;-49
2022/05/16 00:03:03;;;;;;;;;10.00;9.00;;;;;22.63;36.85;101352.65;110454;1261;20099;-48
2022/05/16 00:05:30;;;;;;;;;10.00;9.67;;;;;22.63;36.71;101355.02;110432;1261;18852;-48
2022/05/16 00:07:57;;;;;;;;;11.00;11.00;;;;;22.63;36.76;101352.61;110485;1261;19274;-48
2022/05/16 00:10:24;;;;;;;;;13.00;11.00;;;;;22.63;36.77;101355.34;110473;1261;21239;-48
2022/05/16 00:12:51;;;;;;;;;11.67;10.67;;;;;22.63;36.70;101360.45;110416;1261;24082;-47
2022/05/16 00:15:19;;;;;;;;;12.33;10.33;;;;;22.62;36.68;101355.80;110470;1261;19586;-47
2022/05/16 00:17:46;;;;;;;;;9.33;9.33;;;;;22.62;36.80;101355.97;110464;1261;20848;-48
2022/05/16 00:20:13;;;;;;;;;10.00;9.67;;;;;22.63;36.82;101356.30;110463;1262;22156;-47
2022/05/16 00:22:41;;;;;;;;;10.67;10.33;;;;;22.63;36.69;101359.92;110434;1261;19382;-48
2022/05/16 00:25:08;;;;;;;;;11.00;11.00;;;;;22.63;36.71;101363.13;110479;1261;19558;-47
2022/05/16 00:27:35;;;;;;;;;11.00;11.00;;;;;22.62;36.66;101360.92;110490;1262;20139;-50
2022/05/16 00:30:02;;;;;;;;;14.00;10.00;;;;;22.62;36.79;101365.09;110538;1259;20288;-47
2022/05/16 00:32:30;;;;;;;;;10.00;10.00;;;;;22.63;36.84;101367.54;110541;1259;19451;-47
2022/05/16 00:34:57;;;;;;;;;10.33;10.00;;;;;22.63;36.69;101365.19;110497;1258;18750;-48
2022/05/16 00:37:24;;;;;;;;;9.67;9.67;;;;;22.63;36.77;101365.15;110464;1261;18777;-48
2022/05/16 00:39:51;;;;;;;;;8.67;8.33;;;;;22.64;36.88;101369.08;110747;1258;19602;-46
2022/05/16 00:42:19;;;;;;;;;14.00;13.00;;;;;22.63;36.83;101368.11;110500;1258;18423;-50
2022/05/16 00:44:46;;;;;;;;;10.00;10.00;;;;;22.63;36.73;101369.89;110551;1259;18793;-46
2022/05/16 00:47:13;;;;;;;;;10.00;10.00;;;;;22.63;36.75;101372.05;110540;1258;19513;-48
2022/05/16 00:49:41;;;;;;;;;11.00;10.33;;;;;22.63;36.87;101375.06;110517;1259;18698;-51
2022/05/16 00:52:08;;;;;;;;;10.00;9.00;;;;;22.63;36.72;101376.52;110524;1259;18799;-46
2022/05/16 00:54:35;;;;;;;;;10.67;10.67;;;;;22.63;37.00;101373.59;110595;1258;20084;-48
2022/05/16 00:57:02;;;;;;;;;11.67;10.00;;;;;22.62;36.81;101371.85;110593;1258;18798;-46
2022/05/16 00:59:29;;;;;;;;;13.33;13.33;;;;;22.62;36.78;101371.85;110561;1259;22425;-48
2022/05/16 01:04:51;;;;;;;;;10.00;9.00;;;;;22.61;37.01;101372.85;110503;1259;18937;-45
2022/05/16 01:07:18;;;;;;;;;11.00;10.00;;;;;22.61;36.85;101369.09;110696;1258;18844;-46
2022/05/16 01:09:45;;;;;;;;;13.00;10.00;;;;;22.61;36.99;101369.61;110606;1258;19633;-46
2022/05/16 01:12:13;;;;;;;;;12.33;11.00;;;;;22.61;36.96;101369.23;110564;1259;22363;-46
2022/05/16 01:14:40;;;;;;;;;12.67;11.67;;;;;22.61;37.05;101368.89;110563;1259;18816;-49
2022/05/16 01:17:08;;;;;;;;;11.67;10.00;;;;;22.61;36.90;101371.72;110534;1259;19464;-47
2022/05/16 01:19:35;;;;;;;;;10.00;9.00;;;;;22.62;37.18;101373.52;110410;1259;18852;-50
2022/05/16 01:22:02;;;;;;;;;10.00;10.00;;;;;22.62;36.95;101372.94;110514;1259;18646;-46
2022/05/16 01:24:30;;;;;;;;;9.00;9.00;;;;;22.63;37.02;101377.38;110465;1258;19459;-47
2022/05/16 01:26:57;;;;;;;;;9.50;9.50;;;;;22.62;36.88;101379.67;110559;1259;22472;-50
2022/05/16 01:29:24;;;;;;;;;11.00;11.00;;;;;22.62;37.02;101378.83;110551;1259;18992;-48
2022/05/16 01:31:51;;;;;;;;;10.00;9.00;;;;;22.62;36.98;101381.94;110538;1258;19486;-48
2022/05/16 01:34:19;;;;;;;;;9.33;9.00;;;;;22.62;37.02;101385.21;110514;1259;24037;-49
2022/05/16 01:36:46;;;;;;;;;10.00;10.00;;;;;22.61;36.99;101381.98;110584;1259;18885;-48
2022/05/16 01:39:13;;;;;;;;;10.00;10.00;;;;;22.62;37.09;101386.10;110560;1259;19453;-49
2022/05/16 01:41:40;;;;;;;;;10.00;9.67;;;;;22.62;37.03;101381.17;110549;1258;18847;-49
2022/05/16 01:44:07;;;;;;;;;12.00;10.00;;;;;22.62;36.99;101382.23;110553;1259;18907;-49
2022/05/16 01:46:35;;;;;;;;;10.00;9.67;;;;;22.62;36.95;101380.27;110466;1259;19612;-48
2022/05/16 01:49:02;;;;;;;;;9.00;9.00;;;;;22.60;37.06;101376.23;110535;1258;18700;-47
2022/05/16 01:51:29;;;;;;;;;10.67;10.00;;;;;22.61;37.09;101383.67;110608;1259;22418;-50
2022/05/16 01:53:57;;;;;;;;;11.00;11.00;;;;;22.61;37.17;101387.05;110558;1259;19565;-48
2022/05/16 01:56:24;;;;;;;;;11.00;9.50;;;;;22.61;37.12;101388.39;110497;1261;18724;-48
2022/05/16 01:58:52;;;;;;;;;16.00;10.00;;;;;22.60;37.17;101390.78;110469;1259;18815;-48
2022/05/16 02:01:20;;;;;;;;;10.50;9.50;;;;;22.60;37.24;101387.51;110465;1259;20985;-49
2022/05/16 02:03:48;;;;;;;;;10.00;9.67;;;;;22.60;37.30;101388.30;110574;1258;22847;-49
2022/05/16 02:06:16;;;;;;;;;11.67;10.00;;;;;22.60;37.16;101389.90;110545;1259;21039;-49
2022/05/16 02:08:43;;;;;;;;;9.33;9.33;;;;;22.60;37.14;101390.52;110526;1259;19557;-48
2022/05/16 02:11:11;;;;;;;;;13.33;10.00;;;;;22.59;37.37;101392.91;110530;1258;18774;-48
2022/05/16 02:13:38;;;;;;;;;11.00;10.33;;;;;22.60;37.13;101393.46;110513;1259;18852;-49
2022/05/16 02:16:06;;;;;;;;;11.00;10.00;;;;;22.60;37.12;101392.52;110497;1259;19981;-48
2022/05/16 02:18:33;;;;;;;;;10.33;10.00;;;;;22.59;37.10;101393.48;110604;1258;18809;-48
2022/05/16 02:26:26;;;;;;;;;13.50;12.00;;;;;22.60;37.23;101397.61;110532;1259;21035;-49
2022/05/16 02:28:54;;;;;;;;;13.33;11.00;;;;;22.60;37.14;101400.31;110566;1259;18892;-49
2022/05/16 02:31:21;;;;;;;;;13.00;13.00;;;;;22.59;37.15;101396.20;110491;1258;19602;-47
2022/05/16 02:33:48;;;;;;;;;11.00;11.00;;;;;22.59;37.31;101394.95;110579;1258;22092;-48
2022/05/16 02:36:15;;;;;;;;;11.67;11.00;;;;;22.59;37.14;101397.89;110594;1258;19413;-48
2022/05/16 02:38:43;;;;;;;;;12.33;10.00;;;;;22.60;37.15;101400.17;110625;1258;19926;-48
2022/05/16 02:41:10;;;;;;;;;10.33;10.33;;;;;22.59;37.12;101399.72;110542;1258;22683;-48
2022/05/16 02:43:37;;;;;;;;;11.00;10.00;;;;;22.59;37.23;101404.77;110478;1259;19051;-49
2022/05/16 02:46:04;;;;;;;;;10.33;10.33;;;;;22.60;37.34;101403.84;110548;1259;19593;-48
2022/05/16 02:48:31;;;;;;;;;11.00;11.00;;;;;22.60;37.16;101404.17;110603;1259;22223;-49
2022/05/16 02:50:59;;;;;;;;;10.00;10.00;;;;;22.60;37.21;101410.02;110555;1258;19040;-49
2022/05/16 02:53:26;;;;;;;;;11.00;10.00;;;;;22.60;37.27;101406.91;110552;1258;20876;-48
2022/05/16 02:55:53;;;;;;;;;11.00;11.00;;;;;22.59;37.33;101408.81;110501;1259;18704;-48
2022/05/16 02:58:20;;;;;;;;;13.00;12.00;;;;;22.59;37.19;101406.60;110485;1259;18826;-49
2022/05/16 03:00:48;;;;;;;;;10.50;10.00;;;;;22.59;37.14;101408.08;110586;1259;19641;-49
2022/05/16 03:03:15;;;;;;;;;11.00;10.00;;;;;22.60;37.27;101408.03;110557;1259;19357;-49
2022/05/16 03:05:42;;;;;;;;;11.00;10.00;;;;;22.59;37.29;101402.95;110524;1259;22296;-48
2022/05/16 03:08:10;;;;;;;;;11.00;11.00;;;;;22.60;37.20;101404.52;110447;1261;19600;-47
2022/05/16 03:10:37;;;;;;;;;10.33;9.33;;;;;22.59;37.48;101397.17;110488;1260;22029;-49
2022/05/16 03:13:04;;;;;;;;;13.00;11.00;;;;;22.59;37.36;101394.95;110482;1259;23251;-53
2022/05/16 03:15:32;;;;;;;;;10.00;9.00;;;;;22.59;37.47;101391.56;110504;1261;20118;-49
2022/05/16 03:17:59;;;;;;;;;10.67;10.00;;;;;22.59;37.37;101396.44;110497;1260;18956;-48
2022/05/16 03:20:27;;;;;;;;;11.00;11.00;;;;;22.58;37.43;101400.48;110493;1261;19421;-48
2022/05/16 03:22:54;;;;;;;;;10.00;10.00;;;;;22.58;37.31;101400.48;110455;1260;19675;-48
2022/05/16 03:25:21;;;;;;;;;11.00;11.00;;;;;22.58;37.27;101399.40;110491;1259;18843;-47
2022/05/16 03:27:48;;;;;;;;;13.50;13.50;;;;;22.59;37.29;101403.55;110492;1261;18778;-48
2022/05/16 03:30:16;;;;;;;;;13.00;10.00;;;;;22.59;37.34;101402.63;110446;1259;19834;-49
2022/05/16 03:32:43;;;;;;;;;10.33;10.00;;;;;22.59;37.44;101402.09;110457;1261;22787;-49
2022/05/16 03:35:10;;;;;;;;;13.00;12.00;;;;;22.60;37.37;101404.10;110476;1260;18834;-48
2022/05/16 03:37:37;;;;;;;;;12.33;11.00;;;;;22.61;37.48;101408.06;110456;1260;21568;-48
2022/05/16 03:42:50;;;;;;;;;12.00;11.33;;;;;22.60;37.32;101408.10;110687;1258;19057;-48
2022/05/16 03:45:17;;;;;;;;;13.00;11.00;;;;;22.61;37.38;101408.27;110508;1258;19749;-48
2022/05/16 03:47:44;;;;;;;;;10.00;10.00;;;;;22.60;37.44;101405.95;110492;1258;18973;-49
2022/05/16 03:50:12;;;;;;;;;11.00;11.00;;;;;22.60;37.37;101405.23;110532;1259;23675;-44
2022/05/16 03:52:39;;;;;;;;;13.00;11.67;;;;;22.60;37.45;101406.83;110495;1259;19506;-49
2022/05/16 03:55:06;;;;;;;;;11.00;10.33;;;;;22.60;37.40;101405.77;110526;1259;18941;-48
2022/05/16 03:57:33;;;;;;;;;10.67;10.00;;;;;22.60;37.41;101398.81;110586;1259;19228;-48
2022/05/16 04:00:01;;;;;;;;;10.67;10.67;;;;;22.61;37.35;101404.89;110523;1259;22358;-51
2022/05/16 04:02:29;;;;;;;;;10.00;10.00;;;;;22.62;37.55;101407.61;110550;1258;18724;-50
2022/05/16 04:04:56;;;;;;;;;11.00;11.00;;;;;22.61;37.57;101406.02;110696;1258;22769;-46
2022/05/16 04:07:23;;;;;;;;;10.67;10.67;;;;;22.61;37.41;101408.34;110459;1259;21077;-45
2022/05/16 04:09:51;;;;;;;;;12.33;11.00;;;;;22.63;37.52;101407.27;110698;1259;19271;-45
2022/05/16 04:12:18;;;;;;;;;11.00;11.00;;;;;22.63;37.30;101407.13;110516;1259;18950;-48
2022/05/16 04:14:45;;;;;;;;;11.00;10.67;;;;;22.63;37.52;101407.44;110379;1259;19628;-46
2022/05/16 04:17:13;;;;;;;;;14.50;12.00;;;;;22.63;37.44;101412.94;110492;1258;18688;-47
2022/05/16 04:19:40;;;;;;;;;18.00;14.00;;;;;22.62;37.62;101414.98;110482;1259;19064;-48
2022/05/16 04:22:08;;;;;;;;;13.00;11.00;;;;;22.63;37.45;101410.48;110524;1259;19536;-47
2022/05/16 04:24:35;;;;;;;;;11.00;11.00;;;;;22.63;37.55;101409.76;110583;1259;22309;-48
2022/05/16 04:27:02;;;;;;;;;14.00;13.00;;;;;22.63;37.38;101407.80;110545;1259;18799;-49
2022/05/16 04:29:30;;;;;;;;;11.00;10.67;;;;;22.63;37.60;101407.98;110544;1259;19536;-48
2022/05/16 04:31:57;;;;;;;;;13.50;13.00;;;;;22.62;37.34;101404.77;110525;1259;22701;-49
2022/05/16 04:34:24;;;;;;;;;13.00;11.00;;;;;22.63;37.58;101402.31;110480;1259;21221;-47
2022/05/16 04:36:52;;;;;;;;;13.00;11.00;;;;;22.63;37.55;101401.80;110578;1259;19790;-49
2022/05/16 04:39:19;;;;;;;;;15.00;14.00;;;;;22.63;37.44;101401.46;110538;1259;22043;-48
2022/05/16 04:44:36;;;;;;;;;12.00;11.00;;;;;22.63;37.45;101403.40;110538;1259;19611;-48
2022/05/16 04:47:04;;;;;;;;;14.00;13.00;;;;;22.63;37.52;101398.35;110538;1259;22744;-48
2022/05/16 04:49:31;;;;;;;;;14.00;14.00;;;;;22.63;37.46;101400.09;110361;1261;18794;-49
2022/05/16 04:51:58;;;;;;;;;13.00;11.67;;;;;22.64;37.56;101403.91;110602;1259;20128;-48
2022/05/16 04:54:25;;;;;;;;;15.00;14.00;;;;;22.64;37.48;101403.87;110506;1259;18868;-49
2022/05/16 04:56:52;;;;;;;;;15.00;13.00;;;;;22.64;37.34;101406.16;110479;1259;18808;-48
2022/05/16 04:59:20;;;;;;;;;14.00;13.67;;;;;22.65;37.59;101395.86;110461;1259;19710;-48
2022/05/16 05:01:48;;;;;;;;;14.00;13.67;;;;;22.67;37.60;101392.48;110472;1259;18689;-53
2022/05/16 05:04:15;;;;;;;;;14.00;13.33;;;;;22.68;37.54;101390.90;110492;1258;19176;-47
2022/05/16 05:06:42;;;;;;;;;14.00;13.00;;;;;22.69;37.64;101392.56;110518;1259;19949;-48
2022/05/16 05:09:10;;;;;;;;;14.00;13.00;;;;;22.71;37.65;101395.88;110517;1258;22432;-49
2022/05/16 05:14:34;;;;;;;;;15.00;14.67;;;;;22.49;37.82;101398.89;110452;1259;19569;-49
2022/05/16 05:17:01;;;;;;;;;18.33;17.33;;;;;22.51;38.59;101401.55;110347;1259;18739;-46
2022/05/16 05:19:28;;;;;;;;;20.00;18.00;;;;;22.60;38.71;101399.20;110354;1259;18820;-48
2022/05/16 05:21:56;;;;;;;;;19.00;19.00;;;;;22.72;38.89;101398.77;110584;1259;19464;-49
2022/05/16 05:24:23;;;;;;;;;18.00;15.33;;;;;22.80;38.86;101400.27;110515;1259;25372;-51
2022/05/16 05:26:50;;;;;;;;;21.00;19.00;;;;;22.86;39.01;101403.75;110436;1259;18916;-48
2022/05/16 05:29:19;;;;;;;;;15.00;14.00;;;;;22.92;39.32;101402.18;110518;1259;19488;-51
2022/05/16 05:31:46;;;;;;;;;18.00;15.00;;;;;22.96;39.39;101400.85;110488;1259;19070;-47
2022/05/16 05:34:14;;;;;;;;;16.00;16.00;;;;;22.99;39.41;101400.11;110460;1258;18964;-48
2022/05/16 05:36:42;;;;;;;;;17.50;16.00;;;;;23.04;39.53;101399.76;110456;1259;19775;-47
2022/05/16 05:39:09;;;;;;;;;14.00;13.67;;;;;23.03;39.41;101395.70;110462;1259;19401;-48
2022/05/16 05:41:36;;;;;;;;;14.00;13.00;;;;;23.02;39.44;101399.02;109303;1259;1522008;-48
2022/05/16 05:44:03;;;;;;;;;15.00;14.50;;;;;23.01;39.35;101401.88;110506;1259;19735;-47
2022/05/16 05:46:31;;;;;;;;;15.00;15.00;;;;;23.04;39.51;101402.11;110457;1259;18702;-50
2022/05/16 05:48:58;;;;;;;;;16.50;16.00;;;;;23.11;39.77;101402.95;110544;1259;22399;-49
2022/05/16 05:51:25;;;;;;;;;15.00;13.33;;;;;23.19;40.06;101400.52;110508;1259;22063;-49
2022/05/16 05:53:52;;;;;;;;;12.67;12.00;;;;;23.22;40.18;101403.82;110527;1259;18755;-49
2022/05/16 05:56:19;;;;;;;;;15.00;14.00;;;;;23.24;40.14;101403.58;110517;1259;18775;-49
2022/05/16 05:58:47;;;;;;;;;14.00;12.00;;;;;23.26;40.29;101409.58;110443;1259;22849;-49
2022/05/16 06:01:14;;;;;;;;;11.00;11.00;;;;;23.25;40.17;101410.69;110672;1259;18840;-50
2022/05/16 06:03:41;;;;;;;;;15.00;15.00;;;;;23.24;40.02;101410.95;110516;1259;19013;-50
2022/05/16 06:06:09;;;;;;;;;14.67;13.33;;;;;23.25;40.02;101413.90;110509;1259;19576;-50
2022/05/16 06:08:36;;;;;;;;;12.00;12.00;;;;;23.26;39.84;101417.96;110524;1259;18791;-50
2022/05/16 06:11:03;;;;;;;;;16.00;14.00;;;;;23.25;39.89;101416.81;110516;1259;22642;-51
2022/05/16 06:13:31;;;;;;;;;11.67;11.00;;;;;22.90;39.41;101421.95;110421;1259;19469;-49
2022/05/16 06:15:58;;;;;;;;;11.33;11.00;;;;;22.46;39.62;101423.98;110467;1258;19008;-49
2022/05/16 06:18:25;;;;;;;;;13.00;12.33;;;;;22.31;39.57;101425.50;110555;1259;19069;-51
2022/05/16 06:20:53;;;;;;;;;13.50;13.00;;;;;22.04;39.56;101425.55;110473;1259;19674;-53
2022/05/16 06:23:20;;;;;;;;;9.00;9.00;;;;;21.79;39.56;101418.06;110542;1259;21301;-49
2022/05/16 06:25:47;;;;;;;;;7.00;7.00;;;;;21.86;39.46;101412.39;110465;1259;18863;-49
2022/05/16 06:28:15;;;;;;;;;9.00;9.00;;;;;22.04;39.36;101413.28;110440;1259;19520;-49
2022/05/16 06:30:42;;;;;;;;;10.33;10.00;;;;;22.36;39.37;101415.27;110468;1259;22657;-49
2022/05/16 06:33:09;;;;;;;;;9.00;9.00;;;;;22.42;38.83;101416.98;110510;1258;23789;-52
2022/05/16 06:35:36;;;;;;;;;10.00;7.00;;;;;22.51;38.80;101417.94;110497;1259;19602;-50
2022/05/16 06:38:04;;;;;;;;;9.00;9.00;;;;;22.34;39.40;101419.70;110499;1258;18517;-50
2022/05/16 06:40:31;;;;;;;;;9.00;8.33;;;;;22.14;39.19;101417.48;110487;1261;18955;-52
2022/05/16 06:42:58;;;;;;;;;9.33;9.00;;;;;22.06;39.26;101417.98;110547;1259;19805;-52
2022/05/16 06:45:25;;;;;;;;;7.67;7.00;;;;;21.97;38.91;101415.20;110505;1258;21097;-52
2022/05/16 06:47:53;;;;;;;;;6.33;6.33;;;;;21.97;38.80;101413.23;110518;1259;19830;-48
2022/05/16 06:50:20;;;;;;;;;10.00;9.00;;;;;21.90;38.42;101411.91;110470;1262;19441;-49
2022/05/16 06:52:47;;;;;;;;;7.00;7.00;;;;;21.86;38.66;101407.40;110443;1261;22209;-49
2022/05/16 06:55:15;;;;;;;;;9.00;7.00;;;;;21.96;38.14;101405.86;110464;1260;18723;-50
2022/05/16 06:57:42;;;;;;;;;9.00;7.00;;;;;21.98;38.02;101401.99;110522;1261;19808;-50
2022/05/16 07:00:09;;;;;;;;;6.33;6.33;;;;;21.98;38.14;101408.48;110452;1260;18614;-49
2022/05/16 07:02:36;;;;;;;;;7.33;6.33;;;;;21.95;37.70;101404.48;110476;1261;18978;-50
2022/05/16 07:05:04;;;;;;;;;6.00;6.00;;;;;21.86;37.39;101407.77;110463;1261;19905;-51
2022/05/16 07:07:31;;;;;;;;;5.00;5.00;;;;;21.78;37.10;101408.34;110442;1261;22425;-50
2022/05/16 07:09:58;;;;;;;;;6.00;6.00;;;;;21.88;36.41;101409.11;110498;1261;21319;-48
2022/05/16 07:12:25;;;;;;;;;5.00;5.00;;;;;22.03;35.84;101412.14;110424;1261;19655;-50
2022/05/16 07:14:53;;;;;;;;;6.00;6.00;;;;;21.97;35.42;101409.88;110484;1259;22223;-49
2022/05/16 07:17:20;;;;;;;;;5.00;5.00;;;;;21.84;35.42;101406.61;110475;1259;18989;-49
2022/05/16 07:19:49;;;;;;;;;6.00;6.00;;;;;21.79;35.10;101401.70;110481;1259;20011;-49
2022/05/16 07:22:16;;;;;;;;;3.00;3.00;;;;;21.94;35.27;101402.74;110488;1259;18453;-47
2022/05/16 07:24:43;;;;;;;;;3.33;3.33;;;;;22.01;34.94;101407.60;110538;1259;18739;-48
2022/05/16 07:29:56;;;;;;;;;6.00;6.00;;;;;21.69;34.72;101410.58;110484;1259;18441;-51
2022/05/16 07:32:23;;;;;;;;;4.00;4.00;;;;;21.74;34.43;101403.18;110527;1259;22374;-50
2022/05/16 07:34:50;;;;;;;;;5.00;3.33;;;;;21.82;34.24;101404.98;110436;1262;19802;-47
2022/05/16 07:37:17;;;;;;;;;4.67;4.67;;;;;21.91;33.84;101401.65;110671;1259;18721;-49
2022/05/16 07:39:45;;;;;;;;;5.00;5.00;;;;;21.85;33.61;101401.34;110589;1259;19689;-50
2022/05/16 07:42:12;;;;;;;;;5.00;5.00;;;;;21.79;33.40;101400.23;110608;1258;19541;-50
2022/05/16 07:44:40;;;;;;;;;3.00;3.00;;;;;21.70;33.21;101401.26;110633;1258;18756;-48
2022/05/16 07:47:08;;;;;;;;;5.33;5.00;;;;;21.77;33.39;101393.34;110534;1259;19559;-50
2022/05/16 07:49:35;;;;;;;;;6.00;6.00;;;;;22.00;33.13;101393.67;110379;1259;21786;-52
2022/05/16 07:52:03;;;;;;;;;5.00;5.00;;;;;22.08;33.01;101400.66;110500;1261;18522;-49
2022/05/16 07:54:30;;;;;;;;;5.00;5.00;;;;;22.18;32.88;101399.11;110421;1261;19183;-49
2022/05/16 07:56:58;;;;;;;;;5.00;5.00;;;;;22.32;32.76;101400.34;110406;1260;19538;-49
2022/05/16 07:59:25;;;;;;;;;5.33;4.33;;;;;22.45;32.55;101397.15;110379;1259;18604;-50
2022/05/16 08:01:52;;;;;;;;;5.00;5.00;;;;;22.49;32.33;101391.92;110416;1259;19162;-50
2022/05/16 08:04:20;;;;;;;;;5.00;5.00;;;;;22.31;32.25;101399.39;110447;1259;25005;-49
2022/05/16 08:06:47;;;;;;;;;5.00;4.00;;;;;22.36;32.38;101403.77;110581;1259;18473;-51
2022/05/16 08:11:59;;;;;;;;;7.33;5.00;;;;;22.50;31.75;101410.56;110462;1258;22832;-48
2022/05/16 08:14:26;;;;;;;;;5.33;4.00;;;;;22.53;31.34;101417.88;110485;1261;18394;-51
2022/05/16 08:16:54;;;;;;;;;3.00;3.00;;;;;22.59;31.27;101416.29;110400;1260;18826;-49
2022/05/16 08:19:21;;;;;;;;;3.00;3.00;;;;;22.66;31.22;101420.00;110309;1260;19696;-48
2022/05/16 08:21:49;;;;;;;;;5.67;5.00;;;;;22.71;30.99;101417.48;110385;1259;19949;-47
2022/05/16 08:24:16;;;;;;;;;5.00;5.00;;;;;22.80;30.81;101410.27;110465;1259;18817;-49
2022/05/16 08:26:44;;;;;;;;;3.00;3.00;;;;;22.67;30.39;101416.65;110470;1258;19764;-49
2022/05/16 08:29:11;;;;;;;;;5.00;5.00;;;;;22.15;30.31;101420.80;110485;1259;18619;-47
2022/05/16 08:31:39;;;;;;;;;4.00;4.00;;;;;22.20;30.52;101413.45;110406;1261;19135;-49
2022/05/16 08:34:06;;;;;;;;;5.00;3.67;;;;;22.32;30.20;101417.85;110653;1258;22294;-49
2022/05/16 08:42:03;;;;;;;;;4.00;4.00;;;;;21.74;29.81;101413.52;110602;1259;22261;-51
2022/05/16 08:44:30;;;;;;;;;4.67;4.67;;;;;21.70;29.87;101415.05;110429;1259;18434;-49
2022/05/16 08:46:58;;;;;;;;;5.33;5.00;;;;;21.89;29.81;101417.20;110494;1259;18637;-50
2022/05/16 08:49:25;;;;;;;;;5.00;2.67;;;;;22.10;29.52;101415.38;110451;1259;20894;-49
2022/05/16 08:51:53;;;;;;;;;3.00;3.00;;;;;22.29;29.40;101415.46;110581;1259;20226;-51
2022/05/16 08:54:20;;;;;;;;;3.00;3.00;;;;;22.52;29.23;101415.45;110508;1259;18845;-50
2022/05/16 08:56:47;;;;;;;;;4.67;4.67;;;;;22.75;29.41;101419.28;110466;1260;19527;-48
2022/05/16 08:59:14;;;;;;;;;5.33;5.33;;;;;22.92;29.37;101419.54;110463;1259;20270;-50
2022/05/16 09:01:43;;;;;;;;;3.00;3.00;;;;;23.01;29.30;101422.33;110447;1259;19518;-49
2022/05/16 09:04:10;;;;;;;;;3.00;3.00;;;;;22.89;28.85;101424.95;110512;1260;22354;-50
2022/05/16 09:06:38;;;;;;;;;3.00;3.00;;;;;22.51;28.84;101426.14;110516;1259;20966;-50
2022/05/16 09:09:05;;;;;;;;;3.67;3.00;;;;;22.36;28.59;101426.32;110561;1258;19864;-48
2022/05/16 09:11:33;;;;;;;;;4.67;3.33;;;;;22.45;28.49;101427.30;110599;1259;19571;-51
2022/05/16 09:14:00;;;;;;;;;3.00;3.00;;;;;22.66;28.35;101421.17;110498;1259;18471;-50
2022/05/16 09:16:27;;;;;;;;;5.00;3.67;;;;;22.78;28.41;101415.41;110488;1258;18747;-49
2022/05/16 09:18:54;;;;;;;;;5.00;5.00;;;;;22.73;28.77;101415.29;110552;1259;19787;-48
2022/05/16 09:21:22;;;;;;;;;3.00;3.00;;;;;22.63;28.63;101414.30;110510;1258;18671;-49
2022/05/16 09:23:49;;;;;;;;;3.00;3.00;;;;;22.46;28.54;101408.85;110499;1259;19091;-50
2022/05/16 09:26:16;;;;;;;;;5.00;5.00;;;;;22.37;29.21;101405.73;110413;1259;19837;-48
2022/05/16 09:28:45;;;;;;;;;6.00;5.00;;;;;22.39;29.04;101401.94;110217;1259;18811;-51
2022/05/16 09:31:13;;;;;;;;;5.00;5.00;;;;;22.52;29.84;101402.33;110444;1261;20468;-52
2022/05/16 09:33:40;;;;;;;;;5.00;5.00;;;;;22.73;30.89;101405.58;110329;1259;19583;-47
2022/05/16 09:36:07;;;;;;;;;7.67;6.00;;;;;22.92;30.34;101403.27;110456;1259;18434;-49
2022/05/16 09:38:35;;;;;;;;;3.00;3.00;;;;;22.93;29.86;101406.13;110485;1259;18695;-52
2022/05/16 09:41:02;;;;;;;;;4.33;4.33;;;;;22.66;29.18;101410.61;110502;1259;19646;-50
2022/05/16 09:43:29;;;;;;;;;3.00;3.00;;;;;22.55;29.15;101405.95;110436;1258;18644;-49
2022/05/16 09:45:57;;;;;;;;;3.00;3.00;;;;;22.48;29.24;101398.83;110569;1259;18858;-49
2022/05/16 09:48:24;;;;;;;;;3.00;3.00;;;;;22.60;28.91;101397.44;110515;1259;19840;-50
2022/05/16 09:50:51;;;;;;;;;3.00;3.00;;;;;22.78;28.64;101396.65;110501;1259;19686;-49
2022/05/16 09:53:18;;;;;;;;;3.00;3.00;;;;;22.53;28.21;101389.63;110408;1259;21380;-51
2022/05/16 09:55:46;;;;;;;;;2.00;2.00;;;;;22.17;28.37;101392.66;110495;1259;20182;-50
2022/05/16 09:58:14;;;;;;;;;5.00;3.67;;;;;22.20;28.78;101388.80;110548;1259;18409;-50
2022/05/16 10:00:42;;;;;;;;;3.67;3.67;;;;;22.33;28.52;101391.55;110495;1259;22785;-48
2022/05/16 10:03:09;;;;;;;;;3.00;2.00;;;;;22.34;28.45;101388.48;110553;1259;20272;-52
2022/05/16 10:05:37;;;;;;;;;3.00;3.00;;;;;22.30;28.26;101386.64;110508;1259;18651;-49
2022/05/16 10:08:04;;;;;;;;;2.67;2.67;;;;;22.33;28.29;101384.59;110585;1258;21557;-49
2022/05/16 10:10:32;;;;;;;;;3.00;3.00;;;;;22.47;28.05;101380.83;110466;1259;22312;-49
2022/05/16 10:12:59;;;;;;;;;5.00;3.00;;;;;22.61;28.03;101371.93;110512;1258;21508;-52
2022/05/16 10:15:26;;;;;;;;;5.00;3.00;;;;;22.68;27.99;101375.73;110472;1259;28640;-48
2022/05/16 10:17:54;;;;;;;;;5.00;5.00;;;;;22.56;27.37;101375.29;110558;1259;20250;-48
2022/05/16 10:20:22;;;;;;;;;3.00;3.00;;;;;22.37;26.82;101371.61;110673;1258;18561;-48
2022/05/16 10:22:49;;;;;;;;;3.00;3.00;;;;;22.22;26.95;101366.98;110419;1259;20437;-49
2022/05/16 10:25:18;;;;;;;;;2.33;2.33;;;;;22.27;27.36;101370.51;110284;1259;19533;-51
2022/05/16 10:27:45;;;;;;;;;5.00;5.00;;;;;22.40;27.33;101364.58;110489;1259;18578;-47
2022/05/16 10:30:12;;;;;;;;;5.00;4.33;;;;;22.49;27.72;101364.42;110514;1258;18770;-53
2022/05/16 10:35:24;;;;;;;;;5.00;5.00;;;;;22.26;27.83;101360.27;110556;1258;18652;-48
2022/05/16 10:37:52;;;;;;;;;3.00;3.00;;;;;22.08;28.13;101361.55;110448;1259;18776;-48
2022/05/16 10:40:19;;;;;;;;;3.00;3.00;;;;;21.98;28.39;101358.24;110503;1259;20949;-48
2022/05/16 10:42:46;;;;;;;;;5.00;3.00;;;;;22.01;28.62;101358.35;110503;1258;20337;-49
2022/05/16 10:45:14;;;;;;;;;5.00;5.00;;;;;21.96;28.78;101356.86;110531;1259;18789;-50
2022/05/16 10:47:41;;;;;;;;;3.00;3.00;;;;;22.15;29.09;101358.23;110532;1258;22101;-49
2022/05/16 10:50:09;;;;;;;;;3.00;3.00;;;;;22.42;28.95;101358.14;110403;1259;18432;-49
2022/05/16 10:52:36;;;;;;;;;3.00;3.00;;;;;22.59;29.24;101359.28;110403;1259;18782;-47
2022/05/16 10:55:03;;;;;;;;;4.33;3.33;;;;;22.37;28.78;101363.28;110483;1259;22395;-48
2022/05/16 10:57:31;;;;;;;;;3.00;3.00;;;;;22.19;28.93;101359.08;110525;1259;18416;-49
2022/05/16 10:59:59;;;;;;;;;3.00;3.00;;;;;22.25;28.81;101357.86;110514;1258;18674;-50
2022/05/16 11:02:26;;;;;;;;;3.00;3.00;;;;;21.95;28.36;101352.92;110493;1258;19649;-48
2022/05/16 11:04:53;;;;;;;;;3.33;3.33;;;;;21.59;28.19;101355.13;110710;1259;22357;-50
2022/05/16 11:07:21;;;;;;;;;2.00;2.00;;;;;21.56;27.82;101353.64;110525;1259;19403;-46
2022/05/16 11:09:48;;;;;;;;;5.00;5.00;;;;;21.59;27.93;101347.33;110600;1258;19614;-50
2022/05/16 11:12:16;;;;;;;;;5.00;5.00;;;;;21.52;27.58;101349.70;110558;1258;18401;-50
2022/05/16 11:14:46;;;;;;;;;4.00;4.00;;;;;21.52;27.64;101344.01;110536;1259;18717;-48
2022/05/16 11:17:13;;;;;;;;;4.67;4.67;;;;;21.76;27.64;101336.52;110494;1261;19634;-50
2022/05/16 11:19:40;;;;;;;;;5.00;4.00;;;;;21.81;27.65;101334.46;110469;1259;18599;-48
2022/05/16 11:22:07;;;;;;;;;4.00;4.00;;;;;21.96;27.37;101333.45;110464;1262;19007;-49
2022/05/16 11:24:35;;;;;;;;;3.00;2.00;;;;;22.13;27.41;101333.69;110508;1258;19522;-50
2022/05/16 11:27:02;;;;;;;;;6.00;5.00;;;;;22.27;27.74;101331.16;110313;1259;22657;-50
2022/05/16 11:29:29;;;;;;;;;5.00;5.00;;;;;22.39;27.64;101331.00;110383;1260;18987;-49
2022/05/16 11:31:57;;;;;;;;;2.33;2.33;;;;;22.43;27.85;101329.20;110423;1259;20405;-49
2022/05/16 11:34:24;;;;;;;;;5.00;5.00;;;;;22.25;27.76;101331.11;110466;1260;18462;-49
2022/05/16 11:36:52;;;;;;;;;3.00;3.00;;;;;22.09;27.90;101326.88;110505;1259;18704;-49
2022/05/16 11:39:19;;;;;;;;;5.33;5.00;;;;;22.01;27.58;101326.61;110447;1258;19467;-49